createdAt,value
2024-01-11T00:00:36.997Z,-7.34
2024-01-11T00:03:03.902Z,-7.41
2024-01-11T00:05:30.793Z,-7.27
2024-01-11T00:07:57.571Z,-7.34
2024-01-11T00:10:24.291Z,-7.16
2024-01-11T00:12:51.148Z,-7.38
2024-01-11T00:15:18.305Z,-7.31
2024-01-11T00:17:45.142Z,-7.14
2024-01-11T00:20:12.298Z,-7.22
2024-01-11T00:22:38.975Z,-7.24
2024-01-11T00:25:06.214Z,-7.13
2024-01-11T00:27:32.901Z,-7.16
2024-01-11T00:29:59.877Z,-7.20
2024-01-11T00:32:29.992Z,-7.14
2024-01-11T00:34:56.788Z,-7.16
2024-01-11T00:37:23.688Z,-7.11
2024-01-11T00:39:52.214Z,-7.19
2024-01-11T00:42:18.790Z,-7.04
2024-01-11T00:44:46.602Z,-7.13
2024-01-11T00:47:13.375Z,-7.17
2024-01-11T00:49:40.024Z,-7.10
2024-01-11T00:52:07.170Z,-7.11
2024-01-11T00:54:33.824Z,-7.06
2024-01-11T00:57:00.401Z,-7.20
2024-01-11T00:59:27.089Z,-7.11
2024-01-11T01:01:53.754Z,-7.22
2024-01-11T01:04:20.413Z,-7.17
2024-01-11T01:06:47.088Z,-7.21
2024-01-11T01:09:14.953Z,-7.13
2024-01-11T01:11:41.505Z,-7.12
2024-01-11T01:14:08.187Z,-7.27
2024-01-11T01:16:34.876Z,-7.30
2024-01-11T01:19:01.729Z,-7.23
2024-01-11T01:21:29.409Z,-7.27
2024-01-11T01:23:56.136Z,-7.15
2024-01-11T01:26:22.829Z,-7.29
2024-01-11T01:28:49.449Z,-7.26
2024-01-11T01:31:16.141Z,-7.24
2024-01-11T01:33:43.027Z,-7.21
2024-01-11T01:36:11.589Z,-7.25
2024-01-11T01:38:38.449Z,-7.28
2024-01-11T01:41:05.188Z,-7.23
2024-01-11T01:43:31.820Z,-7.30
2024-01-11T01:45:59.667Z,-7.27
2024-01-11T01:48:26.647Z,-7.31
2024-01-11T01:50:53.569Z,-7.39
2024-01-11T01:53:24.178Z,-7.45
2024-01-11T01:55:53.727Z,-7.62
2024-01-11T01:58:21.783Z,-7.49
2024-01-11T02:00:52.263Z,-7.52
2024-01-11T02:03:19.470Z,-7.49
2024-01-11T02:05:46.586Z,-7.56
2024-01-11T02:08:18.759Z,-7.48
2024-01-11T02:10:47.198Z,-7.65
2024-01-11T02:13:16.569Z,-7.51
2024-01-11T02:15:44.207Z,-7.60
2024-01-11T02:18:11.543Z,-7.60
2024-01-11T02:20:38.256Z,-7.61
2024-01-11T02:23:16.155Z,-7.52
2024-01-11T02:25:42.765Z,-7.72
2024-01-11T02:28:09.850Z,-7.58
2024-01-11T02:30:37.631Z,-7.64
2024-01-11T02:33:05.706Z,-7.54
2024-01-11T02:35:33.035Z,-7.53
2024-01-11T02:38:00.991Z,-7.53
2024-01-11T02:40:27.732Z,-7.53
2024-01-11T02:42:54.542Z,-7.62
2024-01-11T02:45:21.384Z,-7.65
2024-01-11T02:47:48.033Z,-7.57
2024-01-11T02:50:14.793Z,-7.58
2024-01-11T02:52:41.413Z,-7.59
2024-01-11T02:55:09.692Z,-7.54
2024-01-11T02:57:36.268Z,-7.58
2024-01-11T03:00:02.907Z,-7.53
2024-01-11T03:02:29.869Z,-7.51
2024-01-11T03:04:56.518Z,-7.56
2024-01-11T03:07:23.356Z,-7.51
2024-01-11T03:09:50.054Z,-7.54
2024-01-11T03:12:16.595Z,-7.49
2024-01-11T03:14:43.286Z,-7.50
2024-01-11T03:17:10.274Z,-7.52
2024-01-11T03:19:42.173Z,-7.54
2024-01-11T03:22:09.144Z,-7.52
2024-01-11T03:24:40.382Z,-7.56
2024-01-11T03:27:07.289Z,-7.58
2024-01-11T03:29:34.128Z,-7.56
2024-01-11T03:32:00.970Z,-7.56
2024-01-11T03:34:27.712Z,-7.53
2024-01-11T03:36:54.358Z,-7.54
2024-01-11T03:39:20.962Z,-7.54
2024-01-11T03:41:47.886Z,-7.57
2024-01-11T03:44:14.909Z,-7.58
2024-01-11T03:46:41.765Z,-7.57
2024-01-11T03:49:11.253Z,-7.59
2024-01-11T03:51:38.002Z,-7.73
2024-01-11T03:54:07.553Z,-7.80
2024-01-11T03:56:35.535Z,-7.59
2024-01-11T03:59:02.256Z,-7.70
2024-01-11T04:01:29.762Z,-7.75
2024-01-11T04:03:56.564Z,-7.63
2024-01-11T04:06:25.350Z,-7.72
2024-01-11T04:08:52.382Z,-7.75
2024-01-11T04:11:20.140Z,-7.78
2024-01-11T04:13:46.882Z,-7.75
2024-01-11T04:16:13.668Z,-7.63
2024-01-11T04:18:40.442Z,-7.89
2024-01-11T04:21:07.103Z,-7.80
2024-01-11T04:23:33.716Z,-7.71
2024-01-11T04:26:00.552Z,-7.66
2024-01-11T04:28:27.199Z,-7.68
2024-01-11T04:30:54.655Z,-7.85
2024-01-11T04:33:22.995Z,-7.77
2024-01-11T04:35:49.940Z,-7.80
2024-01-11T04:38:16.713Z,-7.91
2024-01-11T04:40:43.522Z,-7.99
2024-01-11T04:43:10.353Z,-7.90
2024-01-11T04:45:37.057Z,-7.96
2024-01-11T04:48:04.121Z,-8.02
2024-01-11T04:50:31.015Z,-7.93
2024-01-11T04:52:57.886Z,-7.91
2024-01-11T04:55:24.539Z,-7.90
2024-01-11T04:57:51.207Z,-7.85
2024-01-11T05:00:18.240Z,-7.86
2024-01-11T05:02:44.955Z,-7.96
2024-01-11T05:05:11.858Z,-7.79
2024-01-11T05:07:39.264Z,-7.82
2024-01-11T05:10:06.733Z,-7.96
2024-01-11T05:12:33.506Z,-7.97
2024-01-11T05:15:00.249Z,-7.98
2024-01-11T05:17:28.100Z,-7.97
2024-01-11T05:19:55.154Z,-8.07
2024-01-11T05:22:23.267Z,-8.07
2024-01-11T05:24:50.016Z,-8.34
2024-01-11T05:27:17.019Z,-8.32
2024-01-11T05:29:43.878Z,-8.12
2024-01-11T05:32:11.249Z,-8.17
2024-01-11T05:34:38.196Z,-8.22
2024-01-11T05:37:05.121Z,-8.24
2024-01-11T05:39:32.988Z,-8.23
2024-01-11T05:41:59.642Z,-8.30
2024-01-11T05:44:26.408Z,-8.38
2024-01-11T05:46:53.045Z,-8.29
2024-01-11T05:49:20.068Z,-8.13
2024-01-11T05:51:46.692Z,-8.23
2024-01-11T05:54:13.378Z,-8.17
2024-01-11T05:56:40.138Z,-8.26
2024-01-11T05:59:07.094Z,-8.10
2024-01-11T06:01:33.840Z,-8.08
2024-01-11T06:04:00.598Z,-8.24
2024-01-11T06:06:27.344Z,-8.09
2024-01-11T06:08:54.107Z,-8.03
2024-01-11T06:11:20.891Z,-8.11
2024-01-11T06:13:48.440Z,-8.24
2024-01-11T06:16:15.241Z,-8.15
2024-01-11T06:18:42.175Z,-8.16
2024-01-11T06:21:08.921Z,-8.04
2024-01-11T06:23:35.584Z,-8.15
2024-01-11T06:26:02.242Z,-8.12
2024-01-11T06:28:29.377Z,-8.13
2024-01-11T06:30:56.093Z,-8.05
2024-01-11T06:33:22.950Z,-8.14
2024-01-11T06:35:50.970Z,-7.96
2024-01-11T06:38:17.845Z,-7.96
2024-01-11T06:40:44.817Z,-8.05
2024-01-11T06:43:11.434Z,-8.03
2024-01-11T06:45:38.143Z,-8.04
2024-01-11T06:48:05.303Z,-8.02
2024-01-11T06:50:32.000Z,-8.10
2024-01-11T06:52:58.913Z,-8.06
2024-01-11T06:55:25.543Z,-8.11
2024-01-11T06:57:52.130Z,-8.17
2024-01-11T07:00:19.075Z,-8.26
2024-01-11T07:02:45.982Z,-8.17
2024-01-11T07:05:13.773Z,-8.27
2024-01-11T07:07:40.566Z,-8.24
2024-01-11T07:10:07.603Z,-8.25
2024-01-11T07:12:34.421Z,-8.27
2024-01-11T07:15:01.140Z,-8.31
2024-01-11T07:17:28.054Z,-8.41
2024-01-11T07:19:54.781Z,-8.32
2024-01-11T07:22:21.581Z,-8.39
2024-01-11T07:24:48.220Z,-8.38
2024-01-11T07:27:15.741Z,-8.40
2024-01-11T07:29:42.721Z,-8.40
2024-01-11T07:32:09.770Z,-8.44
2024-01-11T07:34:36.557Z,-8.36
2024-01-11T07:37:03.458Z,-8.36
2024-01-11T07:39:32.230Z,-8.42
2024-01-11T07:41:58.922Z,-8.47
2024-01-11T07:44:25.622Z,-8.38
2024-01-11T07:46:54.547Z,-8.42
2024-01-11T07:49:22.883Z,-8.42
2024-01-11T07:51:50.462Z,-8.44
2024-01-11T07:54:17.179Z,-8.44
2024-01-11T07:56:44.222Z,-8.51
2024-01-11T07:59:16.380Z,-8.44
2024-01-11T08:01:43.312Z,-8.49
2024-01-11T08:04:10.418Z,-8.42
2024-01-11T08:06:37.107Z,-8.47
2024-01-11T08:09:06.211Z,-8.47
2024-01-11T08:11:36.622Z,-8.48
2024-01-11T08:14:07.357Z,-8.47
2024-01-11T08:16:34.415Z,-8.60
2024-01-11T08:19:02.439Z,-8.45
2024-01-11T08:21:29.976Z,-8.49
2024-01-11T08:24:00.609Z,-8.39
2024-01-11T08:26:31.623Z,-8.44
2024-01-11T08:29:00.049Z,-8.18
2024-01-11T08:31:28.055Z,-8.38
2024-01-11T08:33:56.239Z,-8.24
2024-01-11T08:36:23.305Z,-8.39
2024-01-11T08:38:51.493Z,-8.36
2024-01-11T08:41:18.270Z,-8.38
2024-01-11T08:43:45.003Z,-8.23
2024-01-11T08:46:11.710Z,-8.22
2024-01-11T08:48:38.719Z,-8.33
2024-01-11T08:51:07.671Z,-8.30
2024-01-11T08:53:34.448Z,-8.28
2024-01-11T08:56:01.342Z,-8.16
2024-01-11T08:58:28.638Z,-8.08
2024-01-11T09:00:55.462Z,-8.03
2024-01-11T09:03:22.474Z,-8.17
2024-01-11T09:05:49.518Z,-8.14
2024-01-11T09:08:16.338Z,-8.12
2024-01-11T09:10:43.266Z,-8.05
2024-01-11T09:13:11.706Z,-7.98
2024-01-11T09:15:39.613Z,-7.92
2024-01-11T09:18:06.633Z,-7.91
2024-01-11T09:20:35.748Z,-7.90
2024-01-11T09:23:05.318Z,-7.78
2024-01-11T09:25:32.237Z,-7.89
2024-01-11T09:27:58.951Z,-7.62
2024-01-11T09:30:29.044Z,-7.79
2024-01-11T09:32:57.165Z,-7.69
2024-01-11T09:35:24.824Z,-7.72
2024-01-11T09:37:52.432Z,-7.75
2024-01-11T09:40:20.203Z,-7.60
2024-01-11T09:42:47.027Z,-7.63
2024-01-11T09:45:17.315Z,-7.48
2024-01-11T09:47:47.475Z,-7.30
2024-01-11T09:50:19.585Z,-7.24
2024-01-11T09:52:51.223Z,-7.30
2024-01-11T09:55:19.032Z,-7.18
2024-01-11T09:57:47.458Z,-6.94
2024-01-11T10:00:24.045Z,-7.00
2024-01-11T10:02:51.176Z,-7.09
2024-01-11T10:05:19.253Z,-7.08
2024-01-11T10:07:47.220Z,-6.89
2024-01-11T10:10:16.799Z,-6.70
2024-01-11T10:12:44.226Z,-6.75
2024-01-11T10:15:12.087Z,-6.74
2024-01-11T10:17:44.213Z,-6.50
2024-01-11T10:20:15.573Z,-6.58
2024-01-11T10:22:43.268Z,-6.51
2024-01-11T10:25:15.022Z,-6.41
2024-01-11T10:27:45.916Z,-6.69
2024-01-11T10:30:27.593Z,-6.57
2024-01-11T10:32:55.206Z,-6.41
2024-01-11T10:35:23.002Z,-6.28
2024-01-11T10:37:55.156Z,-6.30
2024-01-11T10:40:25.595Z,-6.09
2024-01-11T10:42:53.554Z,-6.11
2024-01-11T10:45:21.492Z,-5.95
2024-01-11T10:48:03.706Z,-5.93
2024-01-11T10:50:35.720Z,-5.99
2024-01-11T10:53:20.905Z,-5.87
2024-01-11T10:55:48.636Z,-5.85
2024-01-11T10:58:17.707Z,-5.76
2024-01-11T11:00:45.934Z,-5.68
2024-01-11T11:03:13.948Z,-5.69
2024-01-11T11:05:42.602Z,-5.62
2024-01-11T11:08:11.036Z,-5.62
2024-01-11T11:10:51.909Z,-5.41
2024-01-11T11:13:19.450Z,-5.42
2024-01-11T11:15:48.254Z,-5.29
2024-01-11T11:18:15.319Z,-5.24
2024-01-11T11:20:45.242Z,-5.25
2024-01-11T11:23:15.146Z,-5.20
2024-01-11T11:25:42.204Z,-5.08
2024-01-11T11:28:09.208Z,-5.04
2024-01-11T11:30:41.715Z,-5.06
2024-01-11T11:33:25.905Z,-4.84
2024-01-11T11:35:59.560Z,-4.69
2024-01-11T11:38:31.169Z,-4.72
2024-01-11T11:41:02.454Z,-4.70
2024-01-11T11:43:30.675Z,-4.70
2024-01-11T11:46:00.550Z,-4.72
2024-01-11T11:48:33.047Z,-4.58
2024-01-11T11:51:20.717Z,-4.50
2024-01-11T11:53:52.430Z,-4.64
2024-01-11T11:56:21.702Z,-4.45
2024-01-11T11:58:49.713Z,-4.58
2024-01-11T12:01:18.764Z,-4.39
2024-01-11T12:03:53.411Z,-4.47
2024-01-11T12:06:22.138Z,-4.32
2024-01-11T12:08:50.113Z,-4.16
2024-01-11T12:11:21.834Z,-4.15
2024-01-11T12:13:50.310Z,-4.10
2024-01-11T12:16:20.376Z,-4.03
2024-01-11T12:18:47.207Z,-3.77
2024-01-11T12:21:13.898Z,-3.82
2024-01-11T12:23:43.375Z,-3.62
2024-01-11T12:26:15.303Z,-3.68
2024-01-11T12:28:43.997Z,-3.44
2024-01-11T12:31:11.220Z,-3.43
2024-01-11T12:33:40.286Z,-3.35
2024-01-11T12:36:09.180Z,-3.25
2024-01-11T12:38:36.901Z,-3.34
2024-01-11T12:41:07.450Z,-3.20
2024-01-11T12:43:36.093Z,-3.01
2024-01-11T12:46:04.019Z,-3.08
2024-01-11T12:48:32.998Z,-2.99
2024-01-11T12:51:10.479Z,-3.04
2024-01-11T12:53:47.192Z,-2.79
2024-01-11T12:56:17.183Z,-2.87
2024-01-11T12:58:44.192Z,-2.70
2024-01-11T13:01:12.035Z,-2.63
2024-01-11T13:03:40.839Z,-2.55
2024-01-11T13:06:08.058Z,-2.61
2024-01-11T13:08:37.839Z,-2.57
2024-01-11T13:11:08.545Z,-2.53
2024-01-11T13:13:36.240Z,-2.61
2024-01-11T13:16:15.857Z,-2.48
2024-01-11T13:18:44.250Z,-2.71
2024-01-11T13:21:11.478Z,-2.71
2024-01-11T13:23:39.624Z,-2.58
2024-01-11T13:26:07.953Z,-2.76
2024-01-11T13:28:35.103Z,-2.71
2024-01-11T13:31:03.657Z,-2.77
2024-01-11T13:33:30.537Z,-2.54
2024-01-11T13:35:57.587Z,-2.65
2024-01-11T13:38:27.100Z,-2.54
2024-01-11T13:40:54.818Z,-2.76
2024-01-11T13:43:21.596Z,-2.56
2024-01-11T13:45:48.696Z,-2.58
2024-01-11T13:48:15.592Z,-2.67
2024-01-11T13:50:42.445Z,-2.64
2024-01-11T13:53:09.316Z,-2.79
2024-01-11T13:55:40.126Z,-2.91
2024-01-11T13:58:07.947Z,-2.57
2024-01-11T14:00:34.923Z,-2.64
2024-01-11T14:03:02.923Z,-2.91
2024-01-11T14:05:30.105Z,-2.73
2024-01-11T14:08:00.563Z,-2.54
2024-01-11T14:10:29.798Z,-2.75
2024-01-11T14:12:56.800Z,-2.74
2024-01-11T14:15:24.297Z,-2.76
2024-01-11T14:17:53.249Z,-2.78
2024-01-11T14:20:20.680Z,-2.77
2024-01-11T14:22:54.286Z,-2.61
2024-01-11T14:25:22.419Z,-2.49
2024-01-11T14:27:50.350Z,-2.49
2024-01-11T14:30:18.081Z,-2.63
2024-01-11T14:32:47.155Z,-2.43
2024-01-11T14:35:14.949Z,-2.81
2024-01-11T14:37:44.186Z,-2.58
2024-01-11T14:40:14.276Z,-2.53
2024-01-11T14:42:42.626Z,-2.72
2024-01-11T14:45:09.800Z,-2.65
2024-01-11T14:47:37.167Z,-2.56
2024-01-11T14:50:12.014Z,-2.47
2024-01-11T14:52:40.245Z,-2.49
2024-01-11T14:55:08.293Z,-2.59
2024-01-11T14:57:38.317Z,-2.72
2024-01-11T15:00:05.953Z,-2.73
2024-01-11T15:02:36.591Z,-2.77
2024-01-11T15:05:03.565Z,-2.55
2024-01-11T15:07:30.349Z,-2.62
2024-01-11T15:09:57.088Z,-2.89
2024-01-11T15:12:23.802Z,-2.74
2024-01-11T15:14:52.368Z,-2.97
2024-01-11T15:17:19.902Z,-3.06
2024-01-11T15:19:46.989Z,-2.71
2024-01-11T15:22:15.048Z,-2.77
2024-01-11T15:24:43.950Z,-2.78
2024-01-11T15:27:11.680Z,-2.93
2024-01-11T15:29:39.103Z,-2.94
2024-01-11T15:32:06.380Z,-2.81
2024-01-11T15:34:33.381Z,-2.98
2024-01-11T15:37:03.837Z,-2.90
2024-01-11T15:39:31.645Z,-2.91
2024-01-11T15:42:05.057Z,-2.98
2024-01-11T15:44:33.208Z,-3.03
2024-01-11T15:47:02.910Z,-2.95
2024-01-11T15:49:29.743Z,-3.11
2024-01-11T15:51:57.407Z,-3.00
2024-01-11T15:54:24.131Z,-2.98
2024-01-11T15:56:52.100Z,-3.01
2024-01-11T15:59:19.175Z,-3.01
2024-01-11T16:01:56.232Z,-3.11
2024-01-11T16:04:30.328Z,-3.06
2024-01-11T16:06:57.514Z,-3.24
2024-01-11T16:09:24.865Z,-3.15
2024-01-11T16:11:52.065Z,-3.29
2024-01-11T16:14:19.125Z,-3.47
2024-01-11T16:16:46.886Z,-3.41
2024-01-11T16:19:13.756Z,-3.32
2024-01-11T16:21:40.687Z,-3.47
2024-01-11T16:24:07.937Z,-3.21
2024-01-11T16:26:34.765Z,-3.24
2024-01-11T16:29:01.709Z,-3.38
2024-01-11T16:31:30.254Z,-3.24
2024-01-11T16:33:57.658Z,-3.41
2024-01-11T16:36:25.006Z,-3.43
2024-01-11T16:38:52.002Z,-3.35
2024-01-11T16:41:19.057Z,-3.38
2024-01-11T16:43:45.800Z,-3.46
2024-01-11T16:46:23.504Z,-3.57
2024-01-11T16:48:51.491Z,-3.47
2024-01-11T16:51:18.385Z,-3.60
2024-01-11T16:53:45.394Z,-3.52
2024-01-11T16:56:12.375Z,-3.59
2024-01-11T16:58:39.868Z,-3.49
2024-01-11T17:01:06.691Z,-3.62
2024-01-11T17:03:33.670Z,-3.51
2024-01-11T17:06:00.580Z,-3.43
2024-01-11T17:08:27.230Z,-3.60
2024-01-11T17:10:53.825Z,-3.45
2024-01-11T17:13:20.667Z,-3.48
2024-01-11T17:15:47.537Z,-3.48
2024-01-11T17:18:14.969Z,-3.54
2024-01-11T17:20:43.370Z,-3.56
2024-01-11T17:23:10.278Z,-3.50
2024-01-11T17:25:37.091Z,-3.51
2024-01-11T17:28:06.886Z,-3.51
2024-01-11T17:30:33.524Z,-3.62
2024-01-11T17:33:00.391Z,-3.56
2024-01-11T17:35:27.142Z,-3.60
2024-01-11T17:37:53.822Z,-3.74
2024-01-11T17:40:20.483Z,-3.71
2024-01-11T17:42:47.532Z,-3.64
2024-01-11T17:45:14.398Z,-3.77
2024-01-11T17:47:43.344Z,-3.66
2024-01-11T17:50:10.346Z,-3.74
2024-01-11T17:52:37.828Z,-3.76
2024-01-11T17:55:06.009Z,-3.81
2024-01-11T17:57:32.597Z,-3.76
2024-01-11T18:00:00.780Z,-3.80
2024-01-11T18:02:27.769Z,-3.86
2024-01-11T18:04:54.473Z,-3.93
2024-01-11T18:07:23.761Z,-3.99
2024-01-11T18:09:53.704Z,-3.83
2024-01-11T18:12:23.456Z,-3.89
2024-01-11T18:14:52.965Z,-3.84
2024-01-11T18:17:19.739Z,-3.98
2024-01-11T18:19:46.444Z,-3.98
2024-01-11T18:22:13.098Z,-3.91
2024-01-11T18:24:43.034Z,-3.98
2024-01-11T18:27:11.329Z,-3.96
2024-01-11T18:29:38.090Z,-4.12
2024-01-11T18:32:05.647Z,-4.11
2024-01-11T18:34:35.715Z,-3.99
2024-01-11T18:37:03.786Z,-4.12
2024-01-11T18:39:30.477Z,-4.08
2024-01-11T18:41:58.990Z,-4.01
2024-01-11T18:44:27.069Z,-4.20
2024-01-11T18:49:35.249Z,-4.16
2024-01-11T18:52:01.934Z,-4.12
2024-01-11T18:54:28.561Z,-4.24
2024-01-11T18:56:55.569Z,-4.24
2024-01-11T18:59:23.684Z,-4.20
2024-01-11T19:01:58.296Z,-4.38
2024-01-11T19:07:06.541Z,-4.47
2024-01-11T19:09:34.759Z,-4.42
2024-01-11T19:12:02.157Z,-4.34
2024-01-11T19:14:29.690Z,-4.24
2024-01-11T19:16:56.715Z,-4.59
2024-01-11T19:19:23.801Z,-4.26
2024-01-11T19:21:50.851Z,-4.40
2024-01-11T19:24:17.647Z,-4.41
2024-01-11T19:26:56.663Z,-4.31
2024-01-11T19:29:25.141Z,-4.47
2024-01-11T19:31:51.862Z,-4.41
2024-01-11T19:34:18.514Z,-4.49
2024-01-11T19:36:52.842Z,-4.45
2024-01-11T19:39:21.114Z,-4.44
2024-01-11T19:41:48.062Z,-4.55
2024-01-11T19:44:15.078Z,-4.47
2024-01-11T19:49:26.177Z,-4.59
2024-01-11T19:51:53.124Z,-4.55
2024-01-11T19:54:23.470Z,-4.58
2024-01-11T19:56:53.118Z,-4.50
2024-01-11T19:59:22.529Z,-4.57
2024-01-11T20:01:50.863Z,-4.65
2024-01-11T20:04:19.368Z,-4.58
2024-01-11T20:06:48.810Z,-4.70
2024-01-11T20:09:19.319Z,-4.75
2024-01-11T20:11:47.646Z,-4.76
2024-01-11T20:14:16.571Z,-4.87
2024-01-11T20:16:44.181Z,-4.84
2024-01-11T20:19:12.464Z,-4.85
2024-01-11T20:21:39.322Z,-4.89
2024-01-11T20:24:06.877Z,-4.86
2024-01-11T20:26:38.975Z,-4.94
2024-01-11T20:29:06.116Z,-4.87
2024-01-11T20:31:32.876Z,-4.83
2024-01-11T20:34:03.616Z,-4.70
2024-01-11T20:36:31.620Z,-4.71
2024-01-11T20:38:58.365Z,-4.62
2024-01-11T20:44:06.147Z,-4.71
2024-01-11T20:46:33.264Z,-4.63
2024-01-11T20:49:01.053Z,-4.55
2024-01-11T20:51:27.861Z,-4.53
2024-01-11T20:53:57.761Z,-4.57
2024-01-11T20:56:24.921Z,-4.50
2024-01-11T20:58:51.976Z,-4.46
2024-01-11T21:01:18.809Z,-4.40
2024-01-11T21:03:45.564Z,-4.34
2024-01-11T21:06:14.457Z,-4.21
2024-01-11T21:08:41.393Z,-4.28
2024-01-11T21:11:09.216Z,-4.28
2024-01-11T21:13:36.423Z,-4.13
2024-01-11T21:16:04.247Z,-4.32
2024-01-11T21:18:31.302Z,-4.11
2024-01-11T21:21:00.503Z,-4.22
2024-01-11T21:23:27.276Z,-4.05
2024-01-11T21:25:53.960Z,-4.15
2024-01-11T21:28:20.683Z,-4.03
2024-01-11T21:30:47.640Z,-3.86
2024-01-11T21:33:16.438Z,-3.64
2024-01-11T21:35:44.509Z,-3.76
2024-01-11T21:38:11.596Z,-3.66
2024-01-11T21:40:40.974Z,-3.63
2024-01-11T21:43:08.820Z,-3.71
2024-01-11T21:45:35.580Z,-3.58
2024-01-11T21:48:02.277Z,-3.39
2024-01-11T21:50:31.948Z,-3.36
2024-01-11T21:53:06.668Z,-3.39
2024-01-11T21:55:34.271Z,-3.25
2024-01-11T21:58:00.884Z,-3.37
2024-01-11T22:00:27.508Z,-3.22
2024-01-11T22:02:54.252Z,-3.15
2024-01-11T22:05:20.948Z,-3.13
2024-01-11T22:07:47.706Z,-3.17
2024-01-11T22:10:15.701Z,-3.15
2024-01-11T22:12:42.338Z,-3.14
2024-01-11T22:15:10.211Z,-3.15
2024-01-11T22:17:37.042Z,-3.10
2024-01-11T22:20:07.418Z,-3.15
2024-01-11T22:22:34.434Z,-3.16
2024-01-11T22:25:01.061Z,-3.13
2024-01-11T22:27:28.861Z,-3.09
2024-01-11T22:29:56.454Z,-3.05
2024-01-11T22:32:23.304Z,-3.10
2024-01-11T22:34:50.176Z,-3.25
2024-01-11T22:37:16.971Z,-3.08
2024-01-11T22:39:45.571Z,-2.95
2024-01-11T22:42:12.470Z,-3.07
2024-01-11T22:44:39.254Z,-2.92
2024-01-11T22:47:06.483Z,-3.06
2024-01-11T22:49:33.554Z,-3.00
2024-01-11T22:52:04.342Z,-3.01
2024-01-11T22:54:31.256Z,-2.98
2024-01-11T22:56:58.274Z,-2.83
2024-01-11T22:59:28.147Z,-2.98
2024-01-11T23:02:00.006Z,-2.84
2024-01-11T23:04:26.806Z,-2.77
2024-01-11T23:06:53.552Z,-2.88
2024-01-11T23:09:21.073Z,-2.76
2024-01-11T23:11:50.030Z,-2.62
2024-01-11T23:14:20.004Z,-2.95
2024-01-11T23:16:46.932Z,-2.77
2024-01-11T23:19:14.685Z,-2.78
2024-01-11T23:21:43.263Z,-2.80
2024-01-11T23:24:09.974Z,-2.62
2024-01-11T23:26:37.165Z,-2.59
2024-01-11T23:29:03.964Z,-2.72
2024-01-11T23:31:30.937Z,-2.79
2024-01-11T23:34:00.805Z,-2.63
2024-01-11T23:36:27.876Z,-2.78
2024-01-11T23:38:54.726Z,-2.80
2024-01-11T23:41:21.872Z,-2.66
2024-01-11T23:43:49.806Z,-2.65
2024-01-11T23:46:16.512Z,-2.67
2024-01-11T23:48:43.293Z,-2.71
2024-01-11T23:51:10.368Z,-2.57
2024-01-11T23:53:37.076Z,-2.54
2024-01-11T23:56:04.959Z,-2.67
2024-01-11T23:58:31.733Z,-2.55
